Latest Weather Observations for Cape Naturaliste

IDW60801

Issued at 2:53 pm WST Saturday 28 January 2023 (issued every 10 minutes, with the page automatically refreshed every 10 minutes)

About weather observations | Map of weather stations | Latest weather observations for WA | Other Formats
Station Details ID: 009519 Name: CAPE NATURALISTE Lat: -33.54 Lon: 115.02 Height: 109.0 m
Data from the previous 72 hours. | See also: Recent months at Cape Naturaliste
Date/Time
WST
Temp
°C
App
Temp
°C
Dew
Point
°C
Rel
Hum
%
Delta-T
°C
Wind Press
QNH
hPa
Press
MSL
hPa
Rain since
9am
mm
Dir  Spd
km/h
Gust
km/h
Spd
kts
Gust
kts
28/02:30pm 22.6 18.2 12.8 54 5.6 SW 28 37 15 20 1011.6 1011.2 0.0
28/02:00pm 23.6 19.7 13.2 52 6.0 SW 26 33 14 18 1011.8 1011.4 0.0
28/01:30pm 23.3 19.6 11.4 47 6.7 SW 22 32 12 17 1012.2 1011.8 0.0
28/01:00pm 23.6 19.8 11.3 46 6.9 SW 22 28 12 15 1012.5 1012.1 0.0
28/12:30pm 23.4 20.0 11.1 46 6.9 SW 20 28 11 15 1013.0 1012.6 0.0
28/12:00pm 22.4 18.9 10.2 46 6.7 SW 19 26 10 14 1013.3 1012.9 0.0
28/11:30am 22.3 18.5 9.8 45 6.8 S 20 26 11 14 1013.6 1013.2 0.0
28/11:00am 21.2 18.1 10.4 50 5.9 NE 17 24 9 13 1014.1 1013.7 0.0
28/10:30am 21.0 17.0 10.5 51 5.7 NE 22 28 12 15 1014.5 1014.1 0.0
28/10:00am 20.9 17.3 10.7 52 5.6 E 20 26 11 14 1014.4 1014.0 0.0
28/09:30am 20.0 16.2 9.9 52 5.4 E 20 28 11 15 1014.5 1014.1 0.0
28/09:00am 19.5 15.5 10.5 56 4.9 E 22 30 12 16 1014.5 1014.1 0.0
28/08:30am 18.6 14.2 10.4 59 4.4 ESE 24 35 13 19 1014.5 1014.1 0.0
28/08:00am 18.1 13.4 10.7 62 4.0 E 26 33 14 18 1014.7 1014.3 0.0
28/07:30am 17.3 13.3 10.4 64 3.7 ESE 22 30 12 16 1014.8 1014.4 0.0
28/07:00am 16.2 11.7 10.1 67 3.2 ESE 24 35 13 19 1014.7 1014.3 0.0
28/06:30am 14.4 10.7 10.0 75 2.3 ESE 20 28 11 15 1014.4 1014.0 0.0
28/06:00am 12.7 8.7 9.0 78 1.9 ESE 20 26 11 14 1014.4 1014.0 0.0
28/05:30am 12.1 7.2 8.4 78 1.8 ESE 24 32 13 17 1014.2 1013.8 0.0
28/05:00am 11.8 7.3 8.5 80 1.6 ESE 22 28 12 15 1014.1 1013.7 0.0
28/04:30am 11.8 7.7 8.5 80 1.6 ESE 20 24 11 13 1013.8 1013.4 0.0
28/04:00am 12.1 8.1 8.4 78 1.8 ESE 19 24 10 13 1014.1 1013.7 0.0
28/03:30am 12.4 8.5 8.5 77 1.9 SE 19 28 10 15 1013.9 1013.5 0.0
28/03:00am 12.5 7.7 8.8 78 1.9 SE 24 32 13 17 1013.3 1012.9 0.0
28/02:30am 12.7 7.9 8.8 77 2.0 SE 24 32 13 17 1013.2 1012.8 0.0
28/02:00am 13.0 8.2 8.9 76 2.1 SE 24 37 13 20 1013.2 1012.8 0.0
28/01:30am 13.2 8.1 9.1 76 2.1 SE 26 33 14 18 1013.4 1013.0 0.0
28/01:00am 13.1 8.8 9.2 77 2.0 SE 22 32 12 17 1013.3 1012.9 0.0
28/12:30am 13.1 9.7 9.0 76 2.1 SE 17 26 9 14 1013.3 1012.9 0.0
28/12:00am 13.6 9.6 9.1 74 2.3 SE 20 28 11 15 1013.2 1012.8 0.0
 
Date/Time
WST
Temp
°C
App
Temp
°C
Dew
Point
°C
Rel
Hum
%
Delta-T
°C
Wind Press
QNH
hPa
Press
MSL
hPa
Rain since
9am
mm
Dir  Spd
km/h
Gust
km/h
Spd
kts
Gust
kts
27/11:30pm 13.8 9.7 8.6 71 2.6 SSE 20 35 11 19 1013.0 1012.6 0.0
27/11:00pm 14.0 9.7 8.0 67 3.0 SSE 20 32 11 17 1013.0 1012.6 0.0
27/10:30pm 14.3 9.9 7.6 64 3.3 SSE 20 30 11 16 1013.0 1012.6 0.0
27/10:00pm 14.7 9.6 7.7 63 3.5 SSE 24 32 13 17 1012.9 1012.5 0.0
27/09:30pm 14.9 10.2 7.7 62 3.6 SSE 22 35 12 19 1013.2 1012.8 0.0
27/09:00pm 15.1 10.4 7.6 61 3.7 SSE 22 35 12 19 1013.1 1012.7 0.0
27/08:30pm 15.1 10.7 7.4 60 3.8 SSE 20 32 11 17 1013.0 1012.6 0.0
27/08:00pm 15.6 10.7 7.1 57 4.2 S 22 32 12 17 1012.8 1012.4 0.0
27/07:30pm 16.3 10.4 7.3 55 4.5 SSE 28 41 15 22 1012.6 1012.2 0.0
27/07:00pm 17.2 11.3 7.5 53 4.9 SSE 28 37 15 20 1012.5 1012.1 0.0
27/06:30pm 18.4 12.5 7.5 49 5.6 SSE 28 35 15 19 1012.5 1012.1 0.0
27/06:00pm 19.6 13.9 8.3 48 5.9 S 28 37 15 20 1012.1 1011.7 0.0
27/05:30pm 20.5 14.8 8.5 46 6.3 SSE 28 37 15 20 1011.8 1011.4 0.0
27/05:00pm 21.4 16.2 9.0 45 6.6 S 26 37 14 20 1011.5 1011.1 0.0
27/04:52pm 21.6 15.4 9.5 46 6.5 S 32 50 17 27 1011.6 1011.2 0.0
27/04:37pm 20.7 13.7 11.3 55 5.2 SSW 39 57 21 31 1011.3 1010.9 0.0
27/04:30pm 20.8 13.3 10.9 53 5.5 SSW 41 54 22 29 1011.2 1010.8 0.0
27/04:05pm 21.1 13.1 10.3 50 5.9 SSW 43 61 23 33 1011.1 1010.7 0.0
27/04:00pm 21.0 12.7 9.9 49 6.0 SSW 44 61 24 33 1011.2 1010.8 0.0
27/03:33pm 21.2 13.1 10.7 51 5.8 SSW 44 63 24 34 1011.0 1010.6 0.0
27/03:30pm 21.3 12.7 10.2 49 6.1 SSW 46 63 25 34 1011.0 1010.6 0.0
27/03:27pm 21.2 13.1 10.7 51 5.8 SSW 44 63 24 34 1010.9 1010.5 0.0
27/03:00pm 21.6 13.6 11.0 51 5.9 SSW 44 61 24 33 1010.9 1010.5 0.0
27/02:39pm 22.1 14.8 11.5 51 5.9 SSW 41 59 22 32 1011.1 1010.7 0.0
27/02:30pm 21.5 14.2 11.5 53 5.6 SSW 41 54 22 29 1011.1 1010.7 0.0
27/02:00pm 21.9 14.8 11.0 50 6.1 SSW 39 52 21 28 1011.3 1010.9 0.0
27/01:30pm 22.9 17.5 12.2 51 6.1 SSW 32 43 17 23 1011.7 1011.3 0.0
27/01:00pm 22.7 17.8 12.6 53 5.8 SSW 30 44 16 24 1011.7 1011.3 0.0
27/12:30pm 22.2 16.3 12.5 54 5.5 SSW 35 48 19 26 1011.8 1011.4 0.0
27/12:00pm 22.4 17.3 13.2 56 5.3 SSW 32 41 17 22 1011.7 1011.3 0.0
27/11:30am 23.1 18.2 13.6 55 5.5 SSW 32 44 17 24 1011.9 1011.5 0.0
27/11:00am 22.0 17.3 14.9 64 4.2 S 33 46 18 25 1012.1 1011.7 0.0
27/10:30am 21.4 16.5 15.3 68 3.6 SSW 35 50 19 27 1012.0 1011.6 0.0
27/10:00am 21.1 16.9 16.3 74 2.9 SSW 33 46 18 25 1012.1 1011.7 0.0
27/09:30am 20.2 16.2 16.8 81 2.1 S 33 44 18 24 1012.0 1011.6 0.0
27/09:00am 18.7 15.0 16.9 89 1.1 SSW 32 43 17 23 1011.9 1011.5 1.2
27/08:30am 18.0 14.4 17.2 95 0.5 S 32 41 17 22 1011.6 1011.2 1.2
27/08:00am 18.0 14.3 17.4 96 0.4 S 33 46 18 25 1011.5 1011.1 1.2
27/07:30am 18.4 16.0 17.4 94 0.6 SSW 26 35 14 19 1011.6 1011.2 0.6
27/07:00am 18.6 17.6 16.6 88 1.2 SSW 17 24 9 13 1011.6 1011.2 0.2
27/06:30am 19.2 18.0 16.1 82 1.9 SSW 17 19 9 10 1011.3 1010.9 0.0
27/06:00am 18.9 18.1 16.1 84 1.7 SSW 15 22 8 12 1011.0 1010.6 0.0
27/05:30am 18.9 17.6 15.8 82 1.8 SSW 17 22 9 12 1010.9 1010.5 0.0
27/05:00am 18.8 17.0 15.5 81 2.0 SSW 19 26 10 14 1010.9 1010.5 0.0
27/04:30am 18.6 15.8 15.3 81 1.9 SSW 24 32 13 17 1010.6 1010.2 0.0
27/04:00am 18.2 16.1 15.1 82 1.8 SSW 20 30 11 16 1010.3 1009.9 0.0
27/03:30am 18.1 16.2 15.2 83 1.7 SSW 19 24 10 13 1010.1 1009.7 0.0
27/03:00am 18.1 16.0 15.2 83 1.7 SSW 20 28 11 15 1010.0 1009.6 0.0
27/02:30am 18.3 15.6 15.6 84 1.6 SSW 24 35 13 19 1010.2 1009.8 0.0
27/02:00am 18.2 14.5 15.1 82 1.8 SSW 28 37 15 20 1010.4 1010.0 0.0
27/01:30am 17.1 15.0 15.1 88 1.2 SSW 20 28 11 15 1010.6 1010.2 0.0
27/01:00am 16.7 14.5 14.5 87 1.3 S 19 24 10 13 1010.6 1010.2 0.0
27/12:30am 16.5 15.6 13.8 84 1.5 SE 11 15 6 8 1010.9 1010.5 0.0
27/12:00am 17.5 14.0 14.4 82 1.8 SSW 26 39 14 21 1010.9 1010.5 0.0
 
Date/Time
WST
Temp
°C
App
Temp
°C
Dew
Point
°C
Rel
Hum
%
Delta-T
°C
Wind Press
QNH
hPa
Press
MSL
hPa
Rain since
9am
mm
Dir  Spd
km/h
Gust
km/h
Spd
kts
Gust
kts
26/11:30pm 17.6 12.3 14.3 81 1.9 SSW 35 50 19 27 1011.0 1010.6 0.0
26/11:00pm 17.7 11.7 14.4 81 1.9 SSW 39 50 21 27 1011.1 1010.7 0.0
26/10:30pm 17.5 11.9 14.4 82 1.8 SSW 37 48 20 26 1011.2 1010.8 0.0
26/10:00pm 17.4 12.2 14.5 83 1.7 SSW 35 46 19 25 1011.3 1010.9 0.0
26/09:30pm 17.6 12.3 14.3 81 1.9 SSW 35 46 19 25 1011.2 1010.8 0.0
26/09:00pm 17.8 14.0 14.7 82 1.8 SSW 28 37 15 20 1011.4 1011.0 0.0
26/08:30pm 18.0 14.3 15.1 83 1.7 SSW 28 35 15 19 1011.6 1011.2 0.0
26/08:00pm 18.0 14.2 14.7 81 1.9 S 28 37 15 20 1011.4 1011.0 0.0
26/07:30pm 18.2 13.6 14.5 79 2.1 SSW 32 41 17 22 1011.4 1011.0 0.0
26/07:00pm 18.7 14.2 15.0 79 2.2 SSW 32 43 17 23 1011.5 1011.1 0.0
26/06:30pm 19.3 14.8 15.0 76 2.5 SSW 32 44 17 24 1011.5 1011.1 0.0
26/06:00pm 19.9 14.4 14.7 72 3.1 SSW 37 48 20 26 1011.3 1010.9 0.0
26/05:30pm 21.0 15.6 15.1 69 3.5 SSW 37 48 20 26 1011.2 1010.8 0.0
26/05:00pm 21.5 16.3 15.6 69 3.5 SSW 37 50 20 27 1011.2 1010.8 0.0
26/04:30pm 21.7 16.9 15.5 68 3.7 SSW 35 46 19 25 1011.2 1010.8 0.0
26/04:00pm 22.5 18.5 16.1 67 3.9 SSW 32 39 17 21 1011.3 1010.9 0.0
26/03:30pm 22.4 18.1 15.3 64 4.3 SSW 32 39 17 21 1011.7 1011.3 0.0
26/03:00pm 24.0 21.1 16.0 61 4.9 SSW 26 37 14 20 1012.1 1011.7 0.0
26/02:30pm 23.8 20.8 15.8 61 4.9 SSW 26 33 14 18 1012.4 1012.0 0.0
26/02:00pm 23.9 20.8 14.6 56 5.5 SSW 24 32 13 17 1012.5 1012.1 0.0
26/01:30pm 24.1 20.7 14.8 56 5.6 SSW 26 33 14 18 1012.7 1012.3 0.0
26/01:00pm 23.6 20.4 14.3 56 5.5 SSW 24 30 13 16 1013.1 1012.7 0.0
26/12:30pm 24.6 22.5 16.1 59 5.2 SW 22 30 12 16 1013.4 1013.0 0.0
26/12:00pm 24.1 21.7 13.9 53 6.0 SW 19 26 10 14 1013.5 1013.1 0.0
26/11:30am 24.5 23.2 13.7 51 6.4 WSW 13 20 7 11 1013.9 1013.5 0.0
26/11:00am 22.5 21.7 14.1 59 4.9 NNE 11 15 6 8 1014.3 1013.9 0.0
26/10:30am 22.2 21.4 14.1 60 4.8 NNE 11 17 6 9 1014.6 1014.2 0.0
26/10:00am 21.9 20.6 13.8 60 4.7 NE 13 19 7 10 1015.1 1014.8 0.0
26/09:30am 22.1 20.6 14.2 61 4.6 ENE 15 20 8 11 1015.2 1014.9 0.0
26/09:00am 21.5 20.1 13.4 60 4.7 ENE 13 17 7 9 1015.2 1014.9 0.0
26/08:30am 21.2 19.3 12.9 59 4.7 ENE 15 17 8 9 1015.2 1014.9 0.0
26/08:00am 21.5 19.9 12.9 58 4.9 ESE 13 15 7 8 1015.4 1015.1 0.0
26/07:30am 19.7 17.3 12.5 63 4.1 SE 17 20 9 11 1015.7 1015.4 0.0
26/07:00am 18.2 15.5 11.7 66 3.6 ESE 17 22 9 12 1015.8 1015.5 0.0
26/06:30am 16.6 13.1 10.9 69 3.1 SE 20 24 11 13 1015.8 1015.5 0.0
26/06:00am 15.1 11.5 10.5 74 2.4 SE 20 28 11 15 1015.7 1015.4 0.0
26/05:30am 15.0 10.6 10.4 74 2.4 SE 24 28 13 15 1015.6 1015.3 0.0
26/05:00am 15.2 10.7 10.2 72 2.6 SE 24 28 13 15 1015.4 1015.1 0.0
26/04:30am 15.4 10.9 10.2 71 2.7 SE 24 30 13 16 1015.3 1015.0 0.0
26/04:00am 15.4 10.9 10.0 70 2.8 ESE 24 30 13 16 1015.2 1014.9 0.0
26/03:30am 15.4 10.4 9.7 69 3.0 SE 26 32 14 17 1015.1 1014.8 0.0
26/03:00am 15.7 10.4 9.8 68 3.1 ESE 28 33 15 18 1015.1 1014.8 0.0
26/02:30am 16.1 10.8 10.0 67 3.2 SE 28 35 15 19 1015.0 1014.6 0.0
26/02:00am 16.3 11.1 10.2 67 3.2 SE 28 33 15 18 1015.2 1014.9 0.0
26/01:30am 16.7 11.5 10.3 66 3.4 SE 28 37 15 20 1015.4 1015.1 0.0
26/01:00am 17.3 11.4 10.4 64 3.7 SE 32 39 17 21 1015.7 1015.4 0.0
26/12:30am 17.2 11.7 10.6 65 3.5 SE 30 37 16 20 1015.8 1015.5 0.0
26/12:00am 17.5 12.5 10.9 65 3.6 SE 28 41 15 22 1015.9 1015.6 0.0
 
Date/Time
WST
Temp
°C
App
Temp
°C
Dew
Point
°C
Rel
Hum
%
Delta-T
°C
Wind Press
QNH
hPa
Press
MSL
hPa
Rain since
9am
mm
Dir  Spd
km/h
Gust
km/h
Spd
kts
Gust
kts
25/11:30pm 17.7 12.0 11.3 66 3.5 SE 32 43 17 23 1015.9 1015.6 0.0
25/11:00pm 17.8 12.2 11.4 66 3.5 SE 32 43 17 23 1015.9 1015.6 0.0
25/10:30pm 18.0 12.2 11.6 66 3.5 SE 33 48 18 26 1015.7 1015.4 0.0
25/10:00pm 18.4 12.8 11.5 64 3.8 SSE 32 48 17 26 1015.7 1015.4 0.0
25/09:30pm 18.4 14.0 11.7 65 3.7 SSE 26 35 14 19 1015.8 1015.5 0.0
25/09:00pm 18.7 13.9 11.8 64 3.8 SSE 28 39 15 21 1015.6 1015.3 0.0
25/08:30pm 18.9 14.9 11.9 64 3.9 S 24 33 13 18 1015.3 1015.0 0.0
25/08:00pm 19.0 15.8 12.0 64 3.9 SSW 20 26 11 14 1015.3 1015.0 0.0
25/07:30pm 20.1 16.5 11.8 59 4.6 S 22 32 12 17 1015.2 1014.9 0.0
25/07:00pm 21.9 18.8 12.2 54 5.5 S 20 33 11 18 1015.0 1014.6 0.0
25/06:30pm 23.1 19.9 13.0 53 5.8 SSW 22 32 12 17 1014.9 1014.5 0.0
25/06:00pm 24.6 20.0 12.2 46 7.1 S 28 37 15 20 1014.7 1014.3 0.0
25/05:30pm 25.6 21.6 13.1 46 7.3 SSW 26 35 14 19 1014.6 1014.2 0.0
25/05:00pm 24.4 21.3 15.6 58 5.3 SSW 26 35 14 19 1014.4 1014.0 0.0
25/04:30pm 24.8 20.6 15.7 57 5.5 SSW 32 43 17 23 1014.5 1014.1 0.0
25/04:00pm 25.6 21.4 15.6 54 6.1 SSW 32 43 17 23 1014.5 1014.1 0.0
25/03:30pm 26.3 22.9 15.7 52 6.5 SSW 28 39 15 21 1014.6 1014.2 0.0
25/03:00pm 25.9 22.9 15.9 54 6.1 SSW 26 39 14 21 1014.9 1014.5 0.0

Other formats

Comma delimited format used in spreadsheet applications
http://www.bom.gov.au/fwo/IDW60801/IDW60801.94600.axf

JavaScript Object Notation format (JSON) in row-major order
http://www.bom.gov.au/fwo/IDW60801/IDW60801.94600.json

Data quality

Most of these data are generated automatically and are frequently updated. Quality checks on data are not normally performed. It is possible for incorrect values to appear. Refer to information at About Latest Weather Observations and please check the disclaimer before using these data.